Terminal Aerodrome Forecast
Issued by NWS Atlanta, GA

Home | Current Version | Previous Version | Text Only | Print | Product List | Glossary On
Versions: 1 2 3 4 5 6 7 8 9 10 11 12 13 14 15 16 17 18 19
552
FTUS42 KFFC 182131 AAB
TAFCSG
TAF AMD
KCSG 182131Z 1822/1918 28004KT P6SM VCSH SCT010 BKN035
     FM190400 00000KT 6SM BR VCSH SCT005 BKN015
     FM190600 00000KT 4SM BR BKN006
     FM190900 00000KT 1SM BR BKN002
     FM191500 29003KT 3SM BR BKN005=

USA.gov is the U.S. government's official web portal to all federal, state and local government web resources and services.